createdAt,value
2018-07-24T00:00:31.832Z,18.60
2018-07-24T00:03:01.020Z,18.70
2018-07-24T00:23:35.432Z,18.40
2018-07-24T00:26:04.676Z,18.40
2018-07-24T00:28:34.170Z,18.30
2018-07-24T00:31:03.352Z,18.30
2018-07-24T00:33:32.572Z,18.20
2018-07-24T00:36:01.861Z,18.00
2018-07-24T00:38:31.375Z,18.00
2018-07-24T00:41:00.667Z,17.90
2018-07-24T00:43:30.029Z,17.90
2018-07-24T00:45:59.361Z,17.80
2018-07-24T01:06:33.384Z,17.60
2018-07-24T01:09:02.843Z,17.60
2018-07-24T01:11:32.070Z,17.60
2018-07-24T01:14:01.289Z,17.70
2018-07-24T01:16:30.882Z,17.70
2018-07-24T01:19:00.366Z,17.60
2018-07-24T01:21:29.629Z,17.50
2018-07-24T01:24:00.663Z,17.40
2018-07-24T01:26:29.889Z,17.40
2018-07-24T01:28:59.222Z,17.30
2018-07-24T01:31:28.504Z,17.30
2018-07-24T01:33:57.775Z,17.30
2018-07-24T01:38:55.954Z,17.40
2018-07-24T01:41:25.187Z,17.50
2018-07-24T01:43:54.375Z,17.50
2018-07-24T01:46:23.777Z,17.50
2018-07-24T01:48:54.294Z,17.60
2018-07-24T01:51:23.740Z,17.60
2018-07-24T01:53:54.110Z,17.50
2018-07-24T01:56:23.315Z,17.40
2018-07-24T01:58:53.158Z,17.30
2018-07-24T02:01:22.410Z,17.20
2018-07-24T02:03:51.727Z,17.10
2018-07-24T02:06:22.291Z,17.10
2018-07-24T02:08:51.517Z,17.10
2018-07-24T02:11:20.745Z,17.10
2018-07-24T02:13:50.001Z,17.00
2018-07-24T02:16:19.586Z,17.00
2018-07-24T02:18:49.534Z,16.90
2018-07-24T02:21:18.901Z,17.00
2018-07-24T02:23:48.124Z,17.10
2018-07-24T02:26:17.944Z,17.10
2018-07-24T02:28:47.194Z,17.10
2018-07-24T02:31:17.144Z,17.00
2018-07-24T02:33:46.583Z,17.00
2018-07-24T02:36:15.828Z,16.90
2018-07-24T02:38:45.600Z,17.00
2018-07-24T02:41:15.536Z,17.00
2018-07-24T02:43:44.758Z,17.00
2018-07-24T02:46:15.604Z,17.10
2018-07-24T02:48:44.873Z,17.20
2018-07-24T02:51:14.119Z,17.20
2018-07-24T02:53:44.221Z,17.20
2018-07-24T02:56:14.042Z,17.10
2018-07-24T02:58:43.472Z,17.10
2018-07-24T03:01:12.665Z,17.10
2018-07-24T03:03:41.924Z,17.10
2018-07-24T03:06:11.198Z,17.10
2018-07-24T03:08:40.847Z,17.10
2018-07-24T03:11:10.146Z,16.90
2018-07-24T03:13:39.401Z,17.00
2018-07-24T03:16:08.635Z,17.00
2018-07-24T03:18:37.863Z,16.90
2018-07-24T03:21:13.770Z,16.90
2018-07-24T03:23:43.041Z,16.90
2018-07-24T03:26:12.441Z,16.90
2018-07-24T03:28:42.188Z,16.90
2018-07-24T03:31:11.522Z,16.80
2018-07-24T03:33:40.783Z,16.70
2018-07-24T03:36:10.082Z,16.70
2018-07-24T03:38:39.312Z,16.70
2018-07-24T03:41:08.635Z,16.80
2018-07-24T03:43:38.162Z,16.80
2018-07-24T03:46:07.321Z,16.80
2018-07-24T03:48:37.870Z,16.70
2018-07-24T03:51:07.970Z,16.70
2018-07-24T03:53:37.869Z,16.60
2018-07-24T03:56:07.838Z,16.60
2018-07-24T03:58:37.645Z,16.60
2018-07-24T04:01:07.471Z,16.50
2018-07-24T04:21:40.777Z,16.20
2018-07-24T04:24:11.224Z,16.30
2018-07-24T04:26:40.631Z,16.20
2018-07-24T04:29:10.839Z,16.30
2018-07-24T04:31:40.054Z,16.40
2018-07-24T04:52:13.899Z,16.60
2018-07-24T04:54:43.470Z,16.50
2018-07-24T04:57:13.563Z,16.40
2018-07-24T04:59:42.902Z,16.40
2018-07-24T05:02:12.149Z,16.40
2018-07-24T05:04:42.079Z,16.40
2018-07-24T05:25:13.482Z,16.60
2018-07-24T05:27:44.060Z,16.70
2018-07-24T05:30:13.325Z,16.70
2018-07-24T05:32:42.650Z,16.80
2018-07-24T05:35:11.916Z,16.90
2018-07-24T05:37:42.777Z,17.00
2018-07-24T05:40:12.507Z,17.10
2018-07-24T05:42:41.787Z,17.30
2018-07-24T05:45:10.965Z,17.30
2018-07-24T05:47:41.284Z,17.40
2018-07-24T05:50:11.864Z,17.50
2018-07-24T05:52:41.069Z,17.50
2018-07-24T05:55:10.792Z,17.50
2018-07-24T05:57:40.290Z,17.60
2018-07-24T06:00:09.817Z,17.60
2018-07-24T06:02:39.757Z,17.70
2018-07-24T06:05:09.029Z,17.80
2018-07-24T06:25:41.503Z,18.40
2018-07-24T06:46:15.523Z,19.00
2018-07-24T06:48:44.890Z,19.00
2018-07-24T06:51:15.032Z,19.00
2018-07-24T06:53:44.671Z,19.10
2018-07-24T06:56:14.926Z,19.10
2018-07-24T07:01:13.836Z,19.30
2018-07-24T07:03:43.907Z,19.40
2018-07-24T07:06:13.198Z,19.40
2018-07-24T07:08:42.398Z,19.50
2018-07-24T07:11:11.958Z,19.50
2018-07-24T07:31:45.135Z,19.70
2018-07-24T07:34:14.442Z,19.70
2018-07-24T07:36:43.718Z,19.80
2018-07-24T07:39:13.551Z,19.90
2018-07-24T07:41:43.916Z,19.90
2018-07-24T08:02:17.509Z,20.80
2018-07-24T08:04:46.819Z,20.80
2018-07-24T08:07:16.128Z,20.90
2018-07-24T08:09:45.856Z,21.00
2018-07-24T08:12:15.161Z,21.00
2018-07-24T08:14:44.388Z,21.10
2018-07-24T08:17:13.674Z,21.10
2018-07-24T08:19:43.764Z,21.20
2018-07-24T08:22:13.198Z,21.20
2018-07-24T08:24:42.512Z,21.30
2018-07-24T08:27:12.058Z,21.30
2018-07-24T08:47:46.297Z,22.00
2018-07-24T08:50:15.630Z,22.00
2018-07-24T08:52:44.914Z,22.00
2018-07-24T08:55:14.803Z,22.10
2018-07-24T09:15:48.687Z,22.50
2018-07-24T09:36:15.324Z,23.00
2018-07-24T09:56:42.287Z,23.40
2018-07-24T09:59:12.490Z,23.40
2018-07-24T10:01:42.260Z,23.30
2018-07-24T10:04:11.604Z,23.40
2018-07-24T10:06:41.059Z,23.60
2018-07-24T10:09:12.230Z,23.60
2018-07-24T10:29:46.069Z,23.90
2018-07-24T10:32:15.337Z,24.00
2018-07-24T10:52:49.578Z,24.30
2018-07-24T10:55:18.949Z,24.40
2018-07-24T10:57:48.795Z,24.60
2018-07-24T11:00:18.289Z,24.70
2018-07-24T11:02:47.907Z,24.70
2018-07-24T11:05:17.324Z,24.80
2018-07-24T11:07:46.630Z,25.00
2018-07-24T11:10:16.172Z,25.00
2018-07-24T11:12:45.399Z,25.00
2018-07-24T11:15:14.777Z,25.00
2018-07-24T11:17:44.062Z,25.10
2018-07-24T11:20:13.816Z,25.20
2018-07-24T11:25:13.403Z,25.20
2018-07-24T11:27:42.562Z,25.20
2018-07-24T11:30:11.750Z,25.20
2018-07-24T11:50:45.468Z,25.80
2018-07-24T11:53:15.469Z,25.90
2018-07-24T11:55:45.891Z,26.10
2018-07-24T11:58:15.171Z,26.20
2018-07-24T12:00:45.226Z,26.20
2018-07-24T12:03:15.858Z,26.20
2018-07-24T12:05:46.098Z,26.20
2018-07-24T12:08:15.388Z,26.30
2018-07-24T12:10:44.711Z,26.40
2018-07-24T12:13:13.989Z,26.40
2018-07-24T12:15:44.504Z,26.50
2018-07-24T12:18:13.809Z,26.50
2018-07-24T12:20:42.956Z,26.60
2018-07-24T12:23:12.238Z,26.60
2018-07-24T12:43:45.233Z,27.40
2018-07-24T12:46:15.257Z,27.50
2018-07-24T12:48:45.322Z,27.50
2018-07-24T12:51:14.844Z,27.60
2018-07-24T12:53:44.167Z,27.70
2018-07-24T13:14:19.421Z,28.40
2018-07-24T13:16:49.540Z,28.60
2018-07-24T13:37:31.297Z,29.70
2018-07-24T13:40:00.585Z,29.90
2018-07-24T13:42:30.006Z,30.00
2018-07-24T14:03:05.007Z,32.70
2018-07-24T14:05:34.630Z,33.20
2018-07-24T14:08:04.292Z,33.70
2018-07-24T14:10:34.269Z,34.00
2018-07-24T14:13:04.111Z,34.40
2018-07-24T14:33:30.762Z,35.20
2018-07-24T14:36:00.571Z,35.40
2018-07-24T14:38:31.678Z,35.40
2018-07-24T14:41:02.139Z,35.30
2018-07-24T14:43:31.540Z,35.10
2018-07-24T14:46:01.019Z,35.30
2018-07-24T14:48:31.720Z,35.30
2018-07-24T14:51:01.744Z,35.60
2018-07-24T15:11:29.317Z,37.30
2018-07-24T15:32:03.421Z,37.80
2018-07-24T15:34:32.995Z,38.00
2018-07-24T15:55:05.538Z,36.40
2018-07-24T15:57:35.277Z,36.60
2018-07-24T16:00:04.942Z,36.10
2018-07-24T16:20:39.006Z,33.00
2018-07-24T16:23:08.954Z,32.20
2018-07-24T16:25:38.241Z,31.80
2018-07-24T16:28:07.486Z,31.50
2018-07-24T16:30:36.826Z,31.40
2018-07-24T16:33:07.384Z,31.20
2018-07-24T16:35:36.621Z,31.00
2018-07-24T16:38:05.867Z,30.80
2018-07-24T16:40:35.648Z,30.70
2018-07-24T16:43:05.233Z,30.60
2018-07-24T17:03:39.688Z,29.60
2018-07-24T17:08:37.916Z,29.50
2018-07-24T17:11:07.597Z,29.50
2018-07-24T17:13:37.630Z,29.40
2018-07-24T17:34:10.485Z,28.90
2018-07-24T17:36:40.309Z,28.90
2018-07-24T17:39:11.230Z,28.80
2018-07-24T17:41:41.564Z,28.80
2018-07-24T17:44:12.064Z,28.70
2018-07-24T17:46:41.336Z,28.60
2018-07-24T17:49:10.677Z,28.60
2018-07-24T17:51:39.958Z,28.50
2018-07-24T17:54:10.421Z,28.50
2018-07-24T17:56:40.742Z,28.40
2018-07-24T17:59:10.003Z,28.40
2018-07-24T18:01:39.297Z,28.30
2018-07-24T18:04:08.743Z,28.30
2018-07-24T18:06:38.298Z,28.20
2018-07-24T18:27:12.451Z,27.50
2018-07-24T18:47:46.876Z,26.90
2018-07-24T18:50:16.991Z,26.80
2018-07-24T19:10:49.975Z,25.90
2018-07-24T19:13:19.401Z,25.80
2018-07-24T19:33:53.906Z,25.40
2018-07-24T19:36:23.658Z,25.40
2018-07-24T19:38:53.551Z,25.30
2018-07-24T19:41:23.753Z,25.20
2018-07-24T19:43:53.070Z,25.10
2018-07-24T19:46:23.127Z,25.10
2018-07-24T20:06:57.369Z,24.90
2018-07-24T20:09:27.473Z,24.80
2018-07-24T20:11:56.723Z,24.70
2018-07-24T20:14:26.925Z,24.70
2018-07-24T20:35:00.260Z,24.30
2018-07-24T20:37:29.609Z,24.30
2018-07-24T20:39:59.350Z,24.30
2018-07-24T20:42:28.713Z,24.20
2018-07-24T20:44:59.385Z,24.10
2018-07-24T20:47:28.581Z,24.00
2018-07-24T20:49:57.822Z,23.80
2018-07-24T20:52:27.338Z,23.70
2018-07-24T20:54:56.653Z,23.70
2018-07-24T20:57:27.025Z,23.70
2018-07-24T20:59:57.462Z,23.80
2018-07-24T21:20:31.405Z,23.10
2018-07-24T21:23:01.785Z,23.10
2018-07-24T21:25:30.988Z,23.00
2018-07-24T21:28:00.231Z,23.00
2018-07-24T21:30:30.169Z,22.90
2018-07-24T21:33:00.041Z,22.80
2018-07-24T22:05:35.324Z,21.70
2018-07-24T22:26:10.114Z,21.60
2018-07-24T22:28:40.120Z,21.50
2018-07-24T22:31:10.045Z,21.50
2018-07-24T22:33:40.745Z,21.50
2018-07-24T22:36:11.281Z,21.40
2018-07-24T22:38:40.542Z,21.40
2018-07-24T22:41:09.769Z,21.40
2018-07-24T23:01:44.748Z,21.50
2018-07-24T23:04:14.701Z,21.50
2018-07-24T23:06:43.965Z,21.50
2018-07-24T23:09:13.257Z,21.50
2018-07-24T23:11:42.949Z,21.60
2018-07-24T23:14:12.158Z,21.60
2018-07-24T23:16:42.093Z,21.60
2018-07-24T23:19:11.292Z,21.70
2018-07-24T23:21:40.491Z,21.70
2018-07-24T23:24:10.128Z,21.70
2018-07-24T23:26:40.956Z,21.70
2018-07-24T23:29:10.357Z,21.50
2018-07-24T23:31:39.989Z,21.40
2018-07-24T23:34:09.312Z,21.40
2018-07-24T23:36:38.661Z,21.40
2018-07-24T23:39:09.484Z,21.30
2018-07-24T23:41:39.050Z,21.30
2018-07-24T23:44:08.742Z,21.30
2018-07-24T23:46:38.649Z,21.30
2018-07-24T23:49:08.086Z,21.30
2018-07-24T23:51:38.796Z,21.20
2018-07-24T23:54:08.213Z,21.20
2018-07-24T23:56:37.459Z,21.30
2018-07-24T23:59:06.773Z,21.30
